PWSweather.com
Personal Weather Stations
Station Observations
UXOLA
Alcoy, AlcoyES

AlcoyAlcoyES

Lat: 38.70299, Lon: -0.48184

Elevation: 1935

Station Type: PCE FWS-20,

http://www.fiestasalcoy.xyz

High Low Average
Temperature 92.5°F33.6°C 69.8°F21.0°C 78.4°F25.8°C
Dew Point 67.2°F19.6°C 46.3°F7.9°C 60.9°F16.1°C
Winds 13.6 mph 21.9 kmh Calm Calm 4.0 mph WSW6.4 kmh WSW
Wind Gusts 19.7 mph31.7 kmh 1.6 mph2.6 kmh 7.0 mph11.3 kmh
Humidity 81% 21% 59%
Pressure 29.87 in1011.5 mb 29.70 in1005.8 mb -
Precipitation 0.02 in0.5 mm - -
Hour Temp Dew Point Humidity Winds Wind Gusts Pressure Precip Precip Rate Daily Precip Total
12:00 AM 72.3°F22.4°C 64.7°F18.2°C 77% 3.8 mph NW6.1 kmh NW 4.5 mph7.2 kmh 29.87 in1011.5 mb 0.00 in0.0 mm 0.00 in0.0 mm 0.00 in0.0 mm
12:15 AM 72.1°F22.3°C 64.2°F17.9°C 76% 3.8 mph WNW6.1 kmh WNW 5.4 mph8.7 kmh 29.85 in1010.8 mb 0.00 in0.0 mm 0.00 in0.0 mm 0.00 in0.0 mm
12:30 AM 72.1°F22.3°C 64.6°F18.1°C 77% 3.1 mph WNW5.0 kmh WNW 7.6 mph12.2 kmh 29.85 in1010.8 mb 0.00 in0.0 mm 0.00 in0.0 mm 0.00 in0.0 mm
12:45 AM 72.1°F22.3°C 64.2°F17.9°C 76% 1.6 mph NW2.6 kmh NW 5.4 mph8.7 kmh 29.86 in1011.2 mb 0.00 in0.0 mm 0.00 in0.0 mm 0.00 in0.0 mm
01:00 AM 72.1°F22.3°C 64.6°F18.1°C 77% 2.2 mph ESE3.5 kmh ESE 3.8 mph6.1 kmh 29.86 in1011.2 mb 0.00 in0.0 mm 0.00 in0.0 mm 0.00 in0.0 mm
01:15 AM 71.8°F22.1°C 64.9°F18.3°C 79% 0.7 mph ESE1.1 kmh ESE 3.8 mph6.1 kmh 29.87 in1011.5 mb 0.00 in0.0 mm 0.00 in0.0 mm 0.00 in0.0 mm
01:30 AM 71.8°F22.1°C 64.9°F18.3°C 79% 1.6 mph SE2.6 kmh SE 4.5 mph7.2 kmh 29.85 in1010.8 mb 0.00 in0.0 mm 0.00 in0.0 mm 0.00 in0.0 mm
01:45 AM 72.0°F22.2°C 65.8°F18.8°C 81% 1.6 mph SSE2.6 kmh SSE 6.9 mph11.1 kmh 29.83 in1010.2 mb 0.00 in0.0 mm 0.00 in0.0 mm 0.00 in0.0 mm
02:00 AM 71.2°F21.8°C 64.8°F18.2°C 80% 6.0 mph ESE9.7 kmh ESE 9.2 mph14.8 kmh 29.84 in1010.5 mb 0.00 in0.0 mm 0.00 in0.0 mm 0.00 in0.0 mm
02:15 AM 71.1°F21.7°C 63.5°F17.5°C 77% 7.6 mph SE12.2 kmh SE 9.8 mph15.8 kmh 29.84 in1010.5 mb 0.00 in0.0 mm 0.00 in0.0 mm 0.00 in0.0 mm
02:30 AM 70.7°F21.5°C 62.0°F16.7°C 74% 1.6 mph ESE2.6 kmh ESE 8.3 mph13.4 kmh 29.84 in1010.5 mb 0.00 in0.0 mm 0.00 in0.0 mm 0.00 in0.0 mm
02:45 AM 70.5°F21.4°C 61.9°F16.6°C 74% 3.8 mph ESE6.1 kmh ESE 4.5 mph7.2 kmh 29.83 in1010.2 mb 0.00 in0.0 mm 0.00 in0.0 mm 0.00 in0.0 mm
03:00 AM 70.2°F21.2°C 61.1°F16.2°C 73% 2.2 mph ESE3.5 kmh ESE 3.8 mph6.1 kmh 29.82 in1009.8 mb 0.00 in0.0 mm 0.00 in0.0 mm 0.00 in0.0 mm
03:15 AM 69.8°F21.0°C 60.4°F15.8°C 72% 3.1 mph E5.0 kmh E 4.5 mph7.2 kmh 29.81 in1009.5 mb 0.00 in0.0 mm 0.00 in0.0 mm 0.00 in0.0 mm
03:30 AM 70.2°F21.2°C 60.3°F15.7°C 71% 2.2 mph ESE3.5 kmh ESE 3.1 mph5.0 kmh 29.81 in1009.5 mb 0.00 in0.0 mm 0.00 in0.0 mm 0.00 in0.0 mm
03:45 AM 70.0°F21.1°C 59.8°F15.4°C 70% 0.7 mph E1.1 kmh E 1.6 mph2.6 kmh 29.80 in1009.1 mb 0.00 in0.0 mm 0.00 in0.0 mm 0.00 in0.0 mm
04:00 AM 69.8°F21.0°C 59.6°F15.3°C 70% 0.7 mph SE1.1 kmh SE 2.2 mph3.5 kmh 29.80 in1009.1 mb 0.00 in0.0 mm 0.00 in0.0 mm 0.00 in0.0 mm
04:15 AM 69.8°F21.0°C 60.0°F15.6°C 71% 3.1 mph NW5.0 kmh NW 4.5 mph7.2 kmh 29.80 in1009.1 mb 0.00 in0.0 mm 0.00 in0.0 mm 0.00 in0.0 mm
04:30 AM 69.8°F21.0°C 60.4°F15.8°C 72% Calm Calm 3.8 mph6.1 kmh 29.79 in1008.8 mb 0.00 in0.0 mm 0.00 in0.0 mm 0.00 in0.0 mm
04:45 AM 69.8°F21.0°C 60.4°F15.8°C 72% 3.8 mph WNW6.1 kmh WNW 6.0 mph9.7 kmh 29.79 in1008.8 mb 0.00 in0.0 mm 0.00 in0.0 mm 0.00 in0.0 mm
05:00 AM 69.8°F21.0°C 60.8°F16.0°C 73% 2.2 mph SSE3.5 kmh SSE 4.5 mph7.2 kmh 29.78 in1008.5 mb 0.00 in0.0 mm 0.00 in0.0 mm 0.00 in0.0 mm
05:15 AM 70.3°F21.3°C 61.3°F16.3°C 73% 1.6 mph NW2.6 kmh NW 4.5 mph7.2 kmh 29.78 in1008.5 mb 0.00 in0.0 mm 0.00 in0.0 mm 0.00 in0.0 mm
05:30 AM 70.7°F21.5°C 61.6°F16.4°C 73% 1.6 mph SW2.6 kmh SW 4.5 mph7.2 kmh 29.77 in1008.1 mb 0.00 in0.0 mm 0.00 in0.0 mm 0.00 in0.0 mm
05:45 AM 70.3°F21.3°C 61.3°F16.3°C 73% 0.7 mph ESE1.1 kmh ESE 3.1 mph5.0 kmh 29.78 in1008.5 mb 0.00 in0.0 mm 0.00 in0.0 mm 0.00 in0.0 mm
06:00 AM 70.3°F21.3°C 61.3°F16.3°C 73% 0.7 mph WSW1.1 kmh WSW 3.8 mph6.1 kmh 29.77 in1008.1 mb 0.00 in0.0 mm 0.00 in0.0 mm 0.00 in0.0 mm
06:15 AM 70.3°F21.3°C 60.9°F16.1°C 72% Calm Calm 2.2 mph3.5 kmh 29.78 in1008.5 mb 0.00 in0.0 mm 0.00 in0.0 mm 0.00 in0.0 mm
06:30 AM 70.3°F21.3°C 60.5°F15.8°C 71% 1.6 mph NE2.6 kmh NE 2.2 mph3.5 kmh 29.78 in1008.5 mb 0.00 in0.0 mm 0.00 in0.0 mm 0.00 in0.0 mm
06:45 AM 70.9°F21.6°C 61.0°F16.1°C 71% 0.7 mph E1.1 kmh E 3.1 mph5.0 kmh 29.79 in1008.8 mb 0.00 in0.0 mm 0.00 in0.0 mm 0.00 in0.0 mm
07:00 AM 71.8°F22.1°C 59.8°F15.4°C 66% 0.7 mph SE1.1 kmh SE 2.2 mph3.5 kmh 29.79 in1008.8 mb 0.00 in0.0 mm 0.00 in0.0 mm 0.00 in0.0 mm
07:15 AM 72.9°F22.7°C 60.0°F15.6°C 64% 1.6 mph SE2.6 kmh SE 2.2 mph3.5 kmh 29.79 in1008.8 mb 0.00 in0.0 mm 0.00 in0.0 mm 0.00 in0.0 mm
07:30 AM 74.5°F23.6°C 61.1°F16.2°C 63% 3.1 mph S5.0 kmh S 4.5 mph7.2 kmh 29.79 in1008.8 mb 0.00 in0.0 mm 0.00 in0.0 mm 0.00 in0.0 mm
07:45 AM 75.4°F24.1°C 61.0°F16.1°C 61% 5.4 mph NW8.7 kmh NW 7.6 mph12.2 kmh 29.79 in1008.8 mb 0.00 in0.0 mm 0.00 in0.0 mm 0.00 in0.0 mm
08:00 AM 75.9°F24.4°C 61.1°F16.2°C 60% 5.4 mph NW8.7 kmh NW 7.6 mph12.2 kmh 29.80 in1009.1 mb 0.00 in0.0 mm 0.00 in0.0 mm 0.00 in0.0 mm
08:15 AM 76.3°F24.6°C 61.4°F16.3°C 60% 4.5 mph NW7.2 kmh NW 8.3 mph13.4 kmh 29.80 in1009.1 mb 0.00 in0.0 mm 0.00 in0.0 mm 0.00 in0.0 mm
08:30 AM 76.3°F24.6°C 61.9°F16.6°C 61% 3.8 mph NW6.1 kmh NW 9.8 mph15.8 kmh 29.79 in1008.8 mb 0.00 in0.0 mm 0.00 in0.0 mm 0.00 in0.0 mm
08:45 AM 76.8°F24.9°C 62.4°F16.9°C 61% 5.4 mph NW8.7 kmh NW 9.8 mph15.8 kmh 29.80 in1009.1 mb 0.00 in0.0 mm 0.00 in0.0 mm 0.00 in0.0 mm
09:00 AM 77.7°F25.4°C 62.8°F17.1°C 60% 6.9 mph NW11.1 kmh NW 9.2 mph14.8 kmh 29.80 in1009.1 mb 0.00 in0.0 mm 0.00 in0.0 mm 0.00 in0.0 mm
09:15 AM 77.9°F25.5°C 62.9°F17.2°C 60% 7.6 mph NW12.2 kmh NW 11.4 mph18.3 kmh 29.80 in1009.1 mb 0.00 in0.0 mm 0.00 in0.0 mm 0.00 in0.0 mm
09:30 AM 78.4°F25.8°C 63.0°F17.2°C 59% 6.0 mph WNW9.7 kmh WNW 14.5 mph23.3 kmh 29.80 in1009.1 mb 0.00 in0.0 mm 0.00 in0.0 mm 0.00 in0.0 mm
09:45 AM 79.5°F26.4°C 63.0°F17.2°C 57% 7.6 mph NW12.2 kmh NW 9.8 mph15.8 kmh 29.80 in1009.1 mb 0.00 in0.0 mm 0.00 in0.0 mm 0.00 in0.0 mm
10:00 AM 79.2°F26.2°C 62.2°F16.8°C 56% 13.6 mph NW21.9 kmh NW 19.7 mph31.7 kmh 29.80 in1009.1 mb 0.00 in0.0 mm 0.00 in0.0 mm 0.00 in0.0 mm
10:15 AM 79.5°F26.4°C 64.0°F17.8°C 59% 7.6 mph NW12.2 kmh NW 15.9 mph25.6 kmh 29.80 in1009.1 mb 0.00 in0.0 mm 0.00 in0.0 mm 0.00 in0.0 mm
10:30 AM 80.2°F26.8°C 61.6°F16.4°C 53% 9.8 mph NW15.8 kmh NW 14.5 mph23.3 kmh 29.81 in1009.5 mb 0.00 in0.0 mm 0.00 in0.0 mm 0.00 in0.0 mm
10:45 AM 81.0°F27.2°C 61.7°F16.5°C 52% 7.6 mph NW12.2 kmh NW 14.5 mph23.3 kmh 29.80 in1009.1 mb 0.00 in0.0 mm 0.00 in0.0 mm 0.00 in0.0 mm
11:00 AM 81.9°F27.7°C 62.0°F16.7°C 51% 4.5 mph NW7.2 kmh NW 12.1 mph19.5 kmh 29.80 in1009.1 mb 0.00 in0.0 mm 0.00 in0.0 mm 0.00 in0.0 mm
11:15 AM 83.8°F28.8°C 62.7°F17.1°C 49% 3.1 mph W5.0 kmh W 9.8 mph15.8 kmh 29.80 in1009.1 mb 0.00 in0.0 mm 0.00 in0.0 mm 0.00 in0.0 mm
11:30 AM 84.7°F29.3°C 62.3°F16.8°C 47% 7.6 mph NW12.2 kmh NW 9.2 mph14.8 kmh 29.80 in1009.1 mb 0.00 in0.0 mm 0.00 in0.0 mm 0.00 in0.0 mm
11:45 AM 84.6°F29.2°C 60.9°F16.1°C 45% 3.8 mph NW6.1 kmh NW 9.8 mph15.8 kmh 29.80 in1009.1 mb 0.00 in0.0 mm 0.00 in0.0 mm 0.00 in0.0 mm
12:00 PM 84.9°F29.4°C 60.6°F15.9°C 44% 3.1 mph NW5.0 kmh NW 5.4 mph8.7 kmh 29.79 in1008.8 mb 0.00 in0.0 mm 0.00 in0.0 mm 0.00 in0.0 mm
12:15 PM 86.0°F30.0°C 61.0°F16.1°C 43% 4.5 mph W7.2 kmh W 9.2 mph14.8 kmh 29.78 in1008.5 mb 0.00 in0.0 mm 0.00 in0.0 mm 0.00 in0.0 mm
12:30 PM 87.1°F30.6°C 60.6°F15.9°C 41% 3.8 mph WNW6.1 kmh WNW 7.6 mph12.2 kmh 29.78 in1008.5 mb 0.00 in0.0 mm 0.00 in0.0 mm 0.00 in0.0 mm
12:45 PM 88.0°F31.1°C 60.7°F15.9°C 40% 3.1 mph W5.0 kmh W 9.8 mph15.8 kmh 29.77 in1008.1 mb 0.00 in0.0 mm 0.00 in0.0 mm 0.00 in0.0 mm
01:00 PM 88.9°F31.6°C 59.3°F15.2°C 37% 1.6 mph WNW2.6 kmh WNW 8.3 mph13.4 kmh 29.77 in1008.1 mb 0.00 in0.0 mm 0.00 in0.0 mm 0.00 in0.0 mm
01:15 PM 89.4°F31.9°C 54.0°F12.2°C 30% 5.4 mph WNW8.7 kmh WNW 14.5 mph23.3 kmh 29.76 in1007.8 mb 0.00 in0.0 mm 0.00 in0.0 mm 0.00 in0.0 mm
01:30 PM 90.5°F32.5°C 53.0°F11.7°C 28% 6.0 mph NW9.7 kmh NW 10.7 mph17.2 kmh 29.75 in1007.5 mb 0.00 in0.0 mm 0.00 in0.0 mm 0.00 in0.0 mm
01:45 PM 89.2°F31.8°C 49.9°F9.9°C 26% 11.4 mph NW18.3 kmh NW 14.5 mph23.3 kmh 29.75 in1007.5 mb 0.00 in0.0 mm 0.00 in0.0 mm 0.00 in0.0 mm
02:00 PM 90.0°F32.2°C 50.5°F10.3°C 26% 3.1 mph WSW5.0 kmh WSW 8.3 mph13.4 kmh 29.75 in1007.5 mb 0.00 in0.0 mm 0.00 in0.0 mm 0.00 in0.0 mm
02:15 PM 91.0°F32.8°C 49.3°F9.6°C 24% 4.5 mph NW7.2 kmh NW 13.6 mph21.9 kmh 29.75 in1007.5 mb 0.00 in0.0 mm 0.00 in0.0 mm 0.00 in0.0 mm
02:30 PM 91.9°F33.3°C 48.9°F9.4°C 23% 2.2 mph E3.5 kmh E 6.9 mph11.1 kmh 29.75 in1007.5 mb 0.00 in0.0 mm 0.00 in0.0 mm 0.00 in0.0 mm
02:45 PM 91.2°F32.9°C 47.1°F8.4°C 22% 5.4 mph SE8.7 kmh SE 9.8 mph15.8 kmh 29.74 in1007.1 mb 0.00 in0.0 mm 0.00 in0.0 mm 0.00 in0.0 mm
03:00 PM 91.8°F33.2°C 46.3°F7.9°C 21% 2.2 mph NW3.5 kmh NW 10.7 mph17.2 kmh 29.73 in1006.8 mb 0.00 in0.0 mm 0.00 in0.0 mm 0.00 in0.0 mm
03:15 PM 92.5°F33.6°C 48.2°F9.0°C 22% 3.8 mph W6.1 kmh W 10.7 mph17.2 kmh 29.73 in1006.8 mb 0.00 in0.0 mm 0.00 in0.0 mm 0.00 in0.0 mm
03:30 PM 91.2°F32.9°C 47.1°F8.4°C 22% 4.5 mph WNW7.2 kmh WNW 9.8 mph15.8 kmh 29.73 in1006.8 mb 0.00 in0.0 mm 0.00 in0.0 mm 0.00 in0.0 mm
03:45 PM 91.9°F33.3°C 47.7°F8.7°C 22% 4.5 mph NW7.2 kmh NW 12.1 mph19.5 kmh 29.72 in1006.4 mb 0.00 in0.0 mm 0.00 in0.0 mm 0.00 in0.0 mm
04:00 PM 91.6°F33.1°C 47.4°F8.6°C 22% 2.2 mph WNW3.5 kmh WNW 9.2 mph14.8 kmh 29.71 in1006.1 mb 0.00 in0.0 mm 0.00 in0.0 mm 0.00 in0.0 mm
04:15 PM 91.0°F32.8°C 48.2°F9.0°C 23% 6.0 mph NNW9.7 kmh NNW 11.4 mph18.3 kmh 29.71 in1006.1 mb 0.00 in0.0 mm 0.00 in0.0 mm 0.00 in0.0 mm
04:30 PM 90.1°F32.3°C 51.7°F10.9°C 27% 6.9 mph NW11.1 kmh NW 8.3 mph13.4 kmh 29.71 in1006.1 mb 0.00 in0.0 mm 0.00 in0.0 mm 0.00 in0.0 mm
04:45 PM 89.6°F32.0°C 55.0°F12.8°C 31% 7.6 mph NW12.2 kmh NW 9.8 mph15.8 kmh 29.71 in1006.1 mb 0.00 in0.0 mm 0.00 in0.0 mm 0.00 in0.0 mm
05:00 PM 89.8°F32.1°C 56.9°F13.8°C 33% 6.9 mph WNW11.1 kmh WNW 9.8 mph15.8 kmh 29.70 in1005.8 mb 0.00 in0.0 mm 0.00 in0.0 mm 0.00 in0.0 mm
05:15 PM 90.3°F32.4°C 63.5°F17.5°C 41% 8.3 mph NW13.4 kmh NW 10.7 mph17.2 kmh 29.71 in1006.1 mb 0.00 in0.0 mm 0.00 in0.0 mm 0.00 in0.0 mm
05:30 PM 88.2°F31.2°C 67.2°F19.6°C 50% 4.5 mph E7.2 kmh E 6.9 mph11.1 kmh 29.71 in1006.1 mb 0.00 in0.0 mm 0.00 in0.0 mm 0.00 in0.0 mm
05:45 PM 85.6°F29.8°C 66.6°F19.2°C 53% 8.3 mph ESE13.4 kmh ESE 15.9 mph25.6 kmh 29.72 in1006.4 mb 0.00 in0.0 mm 0.00 in0.0 mm 0.00 in0.0 mm
06:00 PM 84.9°F29.4°C 66.5°F19.2°C 54% 6.0 mph SE9.7 kmh SE 10.7 mph17.2 kmh 29.72 in1006.4 mb 0.00 in0.0 mm 0.00 in0.0 mm 0.00 in0.0 mm
06:15 PM 83.5°F28.6°C 66.7°F19.3°C 57% 5.4 mph SE8.7 kmh SE 12.1 mph19.5 kmh 29.72 in1006.4 mb 0.00 in0.0 mm 0.00 in0.0 mm 0.00 in0.0 mm
06:30 PM 82.9°F28.3°C 66.2°F19.0°C 57% 3.1 mph SE5.0 kmh SE 6.0 mph9.7 kmh 29.72 in1006.4 mb 0.00 in0.0 mm 0.00 in0.0 mm 0.00 in0.0 mm
06:45 PM 82.2°F27.9°C 67.0°F19.4°C 60% 3.1 mph WNW5.0 kmh WNW 6.9 mph11.1 kmh 29.73 in1006.8 mb 0.00 in0.0 mm 0.00 in0.0 mm 0.00 in0.0 mm
07:00 PM 80.6°F27.0°C 66.0°F18.9°C 61% 2.2 mph NW3.5 kmh NW 6.0 mph9.7 kmh 29.73 in1006.8 mb 0.00 in0.0 mm 0.00 in0.0 mm 0.00 in0.0 mm
07:15 PM 79.5°F26.4°C 65.9°F18.8°C 63% 2.2 mph W3.5 kmh W 6.0 mph9.7 kmh 29.74 in1007.1 mb 0.00 in0.0 mm 0.00 in0.0 mm 0.00 in0.0 mm
07:30 PM 78.3°F25.7°C 63.3°F17.4°C 60% 6.0 mph NW9.7 kmh NW 15.2 mph24.5 kmh 29.73 in1006.8 mb 0.01 in0.3 mm 0.04 in1.0 mm 0.01 in0.3 mm
07:45 PM 75.4°F24.1°C 61.9°F16.6°C 63% 2.2 mph WNW3.5 kmh WNW 6.9 mph11.1 kmh 29.73 in1006.8 mb 0.02 in0.5 mm 0.04 in1.0 mm 0.02 in0.5 mm
08:00 PM 74.5°F23.6°C 62.4°F16.9°C 66% 0.7 mph WNW1.1 kmh WNW 4.5 mph7.2 kmh 29.74 in1007.1 mb 0.02 in0.5 mm 0.00 in0.0 mm 0.02 in0.5 mm
08:15 PM 74.5°F23.6°C 64.5°F18.1°C 71% 0.7 mph ESE1.1 kmh ESE 4.5 mph7.2 kmh 29.74 in1007.1 mb 0.02 in0.5 mm 0.00 in0.0 mm 0.02 in0.5 mm
08:30 PM 74.8°F23.8°C 65.2°F18.4°C 72% 3.1 mph SE5.0 kmh SE 3.8 mph6.1 kmh 29.74 in1007.1 mb 0.01 in0.3 mm 0.00 in0.0 mm 0.02 in0.5 mm
08:45 PM 73.9°F23.3°C 64.8°F18.2°C 73% 0.7 mph W1.1 kmh W 5.4 mph8.7 kmh 29.74 in1007.1 mb 0.00 in0.0 mm 0.00 in0.0 mm 0.02 in0.5 mm
09:00 PM 73.8°F23.2°C 65.8°F18.8°C 76% Calm Calm 3.1 mph5.0 kmh 29.74 in1007.1 mb 0.00 in0.0 mm 0.00 in0.0 mm 0.02 in0.5 mm
09:15 PM 73.9°F23.3°C 65.9°F18.8°C 76% 0.7 mph W1.1 kmh W 3.1 mph5.0 kmh 29.75 in1007.5 mb 0.00 in0.0 mm 0.00 in0.0 mm 0.02 in0.5 mm
09:30 PM 73.8°F23.2°C 66.1°F18.9°C 77% 3.1 mph NW5.0 kmh NW 4.5 mph7.2 kmh 29.76 in1007.8 mb 0.00 in0.0 mm 0.00 in0.0 mm 0.02 in0.5 mm
09:45 PM 73.8°F23.2°C 66.1°F18.9°C 77% Calm Calm 3.1 mph5.0 kmh 29.77 in1008.1 mb 0.00 in0.0 mm 0.00 in0.0 mm 0.02 in0.5 mm
10:00 PM 73.8°F23.2°C 66.1°F18.9°C 77% 2.2 mph WNW3.5 kmh WNW 5.4 mph8.7 kmh 29.78 in1008.5 mb 0.00 in0.0 mm 0.00 in0.0 mm 0.02 in0.5 mm
10:15 PM 73.6°F23.1°C 65.6°F18.7°C 76% 2.2 mph NW3.5 kmh NW 3.8 mph6.1 kmh 29.77 in1008.1 mb 0.00 in0.0 mm 0.00 in0.0 mm 0.02 in0.5 mm
10:30 PM 73.8°F23.2°C 65.0°F18.3°C 74% 1.6 mph W2.6 kmh W 4.5 mph7.2 kmh 29.78 in1008.5 mb 0.00 in0.0 mm 0.00 in0.0 mm 0.02 in0.5 mm
10:45 PM 73.6°F23.1°C 64.8°F18.2°C 74% 1.6 mph W2.6 kmh W 3.8 mph6.1 kmh 29.78 in1008.5 mb 0.00 in0.0 mm 0.00 in0.0 mm 0.02 in0.5 mm
11:00 PM 73.4°F23.0°C 64.6°F18.1°C 74% Calm Calm 2.2 mph3.5 kmh 29.78 in1008.5 mb 0.00 in0.0 mm 0.00 in0.0 mm 0.02 in0.5 mm
11:15 PM 73.0°F22.8°C 64.3°F17.9°C 74% 0.7 mph W1.1 kmh W 3.1 mph5.0 kmh 29.79 in1008.8 mb 0.00 in0.0 mm 0.00 in0.0 mm 0.02 in0.5 mm
11:30 PM 72.9°F22.7°C 64.1°F17.8°C 74% Calm Calm 1.6 mph2.6 kmh 29.79 in1008.8 mb 0.00 in0.0 mm 0.00 in0.0 mm 0.02 in0.5 mm
11:45 PM 72.3°F22.4°C 63.6°F17.6°C 74% 0.7 mph NW1.1 kmh NW 2.2 mph3.5 kmh 29.79 in1008.8 mb 0.00 in0.0 mm 0.00 in0.0 mm 0.02 in0.5 mm